• Join FlightAware (Why Join?)
  • Login
  • US Flag 
05:50PM EDT


 

Airport Tracker/Info


-or-


 

Live Flight TrackerFlight Track Log ✈ N412GJ ✈ 23-Aug-2013 ✈ KSSI - KLZU

Flight Track Log - Related Links

Times and Time Zones

All times are in EDT time to prevent confusion due to time zone crossing. See the N412GJ flight status page for this flight to view local times or setup timezone preferences in your user account.

Time Position Orientation Groundspeed Altitude Reporting Facility
EDT Latitude Longitude Course Direction KTS MPH feet Rate Location/Type
02:03PM 31.2069 -81.3308 316° Northwest 294 338 3,400  Level Jacksonville Center
02:04PM 31.2694 -81.3128 14° North 233 268 6,200 2,520 Climbing Jacksonville Center
02:05PM 31.3403 -81.3017 North 244 281 8,500 2,400 Climbing Jacksonville Center
02:06PM 31.5070 -81.7460 316° Northwest  Level FlightAware Approximate
02:06PM 31.4256 -81.2906 North 272 313 11,100  Level Jacksonville Center
02:07PM 31.5153 -81.2794 North 308 354 11,200 840 Climbing Jacksonville Center
02:08PM 31.6069 -81.2681 North 355 409 12,800 1,800 Climbing Jacksonville Center
02:09PM 31.7133 -81.2636 North 350 403 14,800 1,800 Climbing Jacksonville Center
02:10PM 31.7728 -81.3408 312° West 322 371 16,400 1,680 Climbing Jacksonville Center
02:11PM 31.8306 -81.4450 303° West 336 387 18,200 1,740 Climbing Jacksonville Center
02:12PM 31.8817 -81.5394 303° West 350 403 19,900 1,620 Climbing Jacksonville Center
02:13PM 31.9264 -81.6269 301° West 350 403 21,500 1,020 Climbing Jacksonville Center
02:14PM 31.9839 -81.7317 303° West 350 403 22,000 240 Climbing Jacksonville Center
02:15PM 32.0389 -81.8364 302° West 376 433 22,000  Level Jacksonville Center
02:16PM 32.0942 -81.9386 303° West 395 455 22,000  Level Jacksonville Center
02:17PM 32.1597 -82.0631 302° West 402 463 22,000  Level Jacksonville Center
02:18PM 32.2167 -82.1781 300° West 412 474 22,000  Level Jacksonville Center
02:19PM 32.2778 -82.2956 302° West 412 474 22,000  Level Jacksonville Center
02:20PM 32.3669 -82.4600 303° West 418 481 22,000  Level Atlanta Center
02:21PM 32.4267 -82.5747 302° West 418 481 22,000  Level Atlanta Center
02:22PM 32.4906 -82.6917 303° West 425 489 22,000  Level Atlanta Center
02:23PM 32.5503 -82.8067 302° West 420 483 22,000 -120 Level Atlanta Center
02:24PM 32.6325 -82.9017 316° Northwest 415 478 21,800 -840 Descending Atlanta Center
02:25PM 32.7231 -82.9894 321° Northwest 415 478 20,400 -1,320 Descending Atlanta Center
02:26PM 32.8053 -83.0750 319° Northwest 415 478 19,200 -1,260 Descending Atlanta Center
02:27PM 32.8894 -83.1581 320° Northwest 397 457 17,900 -1,200 Descending Atlanta Center
02:28PM 32.9733 -83.2464 319° Northwest 397 457 16,800 -1,140 Descending Atlanta Center
02:29PM 33.0594 -83.3300 321° Northwest 397 457 15,700 -1,200 Descending Atlanta Center
02:30PM 33.1267 -83.4014 318° Northwest 382 440 14,500 -1,200 Descending Atlanta Center
02:31PM 33.2064 -83.4828 320° Northwest 377 434 13,400 -1,080 Descending Atlanta Center
02:32PM 33.2839 -83.5592 321° Northwest 372 428 12,400 -960 Descending Atlanta Center
02:33PM 33.3469 -83.6261 318° Northwest 342 394 11,500 -720 Descending Atlanta Center
02:34PM 33.4056 -83.6856 320° Northwest 300 345 11,000 -480 Descending Atlanta Center
02:35PM 33.4703 -83.7225 335° Northwest 271 312 10,600 -780 Descending Atlanta Center
02:36PM 33.5414 -83.7472 344° North 254 292 9,500 -1,200 Descending Atlanta Center
02:37PM 33.6103 -83.7744 342° North 259 298 8,200 -1,320 Descending Atlanta Center
02:38PM 33.6731 -83.8017 340° North 247 284 6,900 -1,380 Descending Atlanta Center
02:39PM 33.7378 -83.8289 341° North 247 284 5,500 -1,500 Descending Atlanta Center
02:40PM 33.8003 -83.8564 340° North 247 284 4,000 -840 Descending Atlanta Center
02:41PM 33.8589 -83.8836 339° North 235 270 3,900 -660 Descending Atlanta Center
02:43PM 33.9333 -83.9000 350° North 206 237 2,700 -1,080 Descending Atlanta TRACON
02:44PM 33.9833 -83.9167 345° North 163 188 1,600 -1,020 Descending Atlanta TRACON
02:46PM 33.9781 -83.9624 301° West  Level Estimated
02:53PM 33.9781 -83.9624 112° Southeast  Level Estimated
02:54PM 33.9781 -83.9624 112° Southeast  Level Estimated